Time;durP1;ratioP1;P1;durP2;ratioP2;P2;SDS_P1;SDS_P2;PMS_P1;PMS_P2;Temp;Humidity;BMP_temperature;BMP_pressure;BME280_temperature;BME280_humidity;BME280_pressure;Samples;Min_cycle;Max_cycle;Signal;HPM_P1;HPM_P2
2023/08/24 00:02:03;;;;;;;22.67;10.00;;;;;;;;;;5071250;28;20035;-58
2023/08/24 00:04:29;;;;;;;19.75;10.60;;;;;;;;;;5053198;28;20027;-58
2023/08/24 00:06:55;;;;;;;20.20;11.15;;;;;;;;;;5071394;28;20029;-58
2023/08/24 00:09:21;;;;;;;25.55;10.70;;;;;;;;;;5071172;28;20477;-58
2023/08/24 00:11:47;;;;;;;20.27;10.25;;;;;;;;;;5071191;28;20031;-58
2023/08/24 00:14:13;;;;;;;18.80;10.20;;;;;;;;;;5070974;28;20025;-58
2023/08/24 00:16:40;;;;;;;20.08;11.40;;;;;;;;;;5070953;28;20023;-58
2023/08/24 00:19:06;;;;;;;18.52;11.23;;;;;;;;;;5071144;28;20070;-58
2023/08/24 00:21:32;;;;;;;18.65;10.90;;;;;;;;;;5071114;28;20029;-58
2023/08/24 00:23:59;;;;;;;18.95;10.80;;;;;;;;;;5070749;28;20463;-57
2023/08/24 00:26:25;;;;;;;19.80;10.98;;;;;;;;;;5071231;28;20017;-57
2023/08/24 00:28:51;;;;;;;21.42;10.70;;;;;;;;;;5071154;28;20035;-58
2023/08/24 00:31:17;;;;;;;21.17;10.98;;;;;;;;;;5052920;28;20020;-58
2023/08/24 00:33:43;;;;;;;18.70;10.35;;;;;;;;;;5070847;28;20020;-58
2023/08/24 00:36:09;;;;;;;21.67;11.93;;;;;;;;;;5070403;28;20044;-59
2023/08/24 00:38:36;;;;;;;18.67;11.63;;;;;;;;;;5053788;28;20020;-59
2023/08/24 00:41:02;;;;;;;20.52;11.98;;;;;;;;;;5070668;28;20358;-57
2023/08/24 00:43:28;;;;;;;19.88;11.60;;;;;;;;;;5071346;28;20505;-57
2023/08/24 00:45:56;;;;;;;21.67;11.48;;;;;;;;;;5071012;28;20036;-58
2023/08/24 00:48:28;;;;;;;19.40;11.30;;;;;;;;;;5070856;28;20032;-59
2023/08/24 00:50:54;;;;;;;18.40;11.02;;;;;;;;;;5071014;28;20122;-57
2023/08/24 00:53:21;;;;;;;18.65;11.05;;;;;;;;;;5070807;28;20037;-56
2023/08/24 00:55:47;;;;;;;19.38;11.80;;;;;;;;;;5070509;28;20028;-58
2023/08/24 00:58:14;;;;;;;20.50;11.02;;;;;;;;;;5077923;28;20414;-58
2023/08/24 01:00:40;;;;;;;21.60;11.82;;;;;;;;;;5087228;28;20016;-58
2023/08/24 01:03:06;;;;;;;19.17;11.50;;;;;;;;;;5070681;28;20055;-59
2023/08/24 01:05:32;;;;;;;19.42;12.30;;;;;;;;;;5071297;28;20029;-57
2023/08/24 01:07:58;;;;;;;22.15;11.65;;;;;;;;;;5073638;28;20651;-58
2023/08/24 01:10:25;;;;;;;20.35;11.70;;;;;;;;;;5076701;28;20081;-57
2023/08/24 01:13:06;;;;;;;20.33;11.60;;;;;;;;;;5072553;28;20032;-59
2023/08/24 01:15:42;;;;;;;20.25;12.05;;;;;;;;;;5071636;28;20040;-61
2023/08/24 01:18:13;;;;;;;19.77;11.88;;;;;;;;;;5072196;28;20024;-59
2023/08/24 01:20:39;;;;;;;21.63;11.70;;;;;;;;;;5071801;28;20025;-57
2023/08/24 01:23:24;;;;;;;18.15;11.93;;;;;;;;;;5071018;28;20032;-58
2023/08/24 01:25:54;;;;;;;18.67;11.43;;;;;;;;;;5070931;28;20028;-58
2023/08/24 01:28:21;;;;;;;21.60;12.07;;;;;;;;;;5071955;28;20028;-57
2023/08/24 01:30:48;;;;;;;19.48;11.40;;;;;;;;;;5074923;28;20024;-59
2023/08/24 01:33:14;;;;;;;19.48;12.23;;;;;;;;;;5075196;28;20020;-60
2023/08/24 01:35:41;;;;;;;21.08;11.50;;;;;;;;;;5056275;28;20024;-58
2023/08/24 01:38:07;;;;;;;20.08;12.10;;;;;;;;;;5074217;28;20044;-59
2023/08/24 01:40:33;;;;;;;20.55;12.20;;;;;;;;;;5056148;28;20024;-58
2023/08/24 01:43:05;;;;;;;20.08;11.75;;;;;;;;;;5074221;28;20159;-59
2023/08/24 01:45:33;;;;;;;20.63;11.75;;;;;;;;;;5073860;28;20339;-59
2023/08/24 01:48:01;;;;;;;20.98;12.27;;;;;;;;;;5084813;28;20027;-58
2023/08/24 01:50:27;;;;;;;21.38;12.10;;;;;;;;;;5093891;28;20050;-58
2023/08/24 01:52:53;;;;;;;19.50;12.27;;;;;;;;;;5085895;28;20020;-59
2023/08/24 01:55:19;;;;;;;23.75;12.23;;;;;;;;;;5093609;28;20009;-59
2023/08/24 01:57:45;;;;;;;20.67;12.18;;;;;;;;;;5093920;28;20031;-59
2023/08/24 02:00:11;;;;;;;18.83;11.20;;;;;;;;;;5093911;28;20035;-59
2023/08/24 02:02:37;;;;;;;21.25;12.35;;;;;;;;;;5093812;28;20396;-58
2023/08/24 02:05:04;;;;;;;22.40;13.93;;;;;;;;;;5093546;28;20031;-59
2023/08/24 02:07:30;;;;;;;20.55;11.70;;;;;;;;;;5093781;28;20031;-59
2023/08/24 02:09:56;;;;;;;21.52;13.15;;;;;;;;;;5093577;28;20059;-59
2023/08/24 02:12:22;;;;;;;20.02;12.95;;;;;;;;;;5093707;28;20031;-59
2023/08/24 02:14:48;;;;;;;21.17;12.48;;;;;;;;;;5093662;28;20035;-59
2023/08/24 02:17:14;;;;;;;21.50;12.70;;;;;;;;;;5093789;28;20391;-58
2023/08/24 02:19:43;;;;;;;22.00;13.25;;;;;;;;;;5093704;28;20032;-59
2023/08/24 02:22:09;;;;;;;22.77;13.43;;;;;;;;;;5093790;28;20047;-59
2023/08/24 02:24:35;;;;;;;23.35;14.45;;;;;;;;;;5093562;28;20024;-59
2023/08/24 02:27:01;;;;;;;24.45;14.85;;;;;;;;;;5075540;28;20388;-58
2023/08/24 02:29:27;;;;;;;22.30;13.18;;;;;;;;;;5093495;28;20024;-59
2023/08/24 02:31:53;;;;;;;20.48;13.55;;;;;;;;;;5075491;28;20594;-59
2023/08/24 02:34:19;;;;;;;24.13;14.77;;;;;;;;;;5101546;28;20024;-60
2023/08/24 02:36:45;;;;;;;22.40;13.57;;;;;;;;;;5102137;28;20024;-56
2023/08/24 02:39:12;;;;;;;25.50;14.15;;;;;;;;;;5093451;28;20386;-53
2023/08/24 02:41:38;;;;;;;21.33;13.93;;;;;;;;;;5093200;28;20476;-58
2023/08/24 02:44:04;;;;;;;22.83;13.70;;;;;;;;;;5092860;28;20024;-58
2023/08/24 02:46:30;;;;;;;22.90;13.73;;;;;;;;;;5092955;28;20020;-58
2023/08/24 02:48:56;;;;;;;26.20;13.23;;;;;;;;;;5074816;28;20166;-58
2023/08/24 02:51:23;;;;;;;25.88;14.10;;;;;;;;;;5092833;28;20024;-58
2023/08/24 02:53:49;;;;;;;24.98;14.65;;;;;;;;;;5092865;28;20051;-58
2023/08/24 02:56:15;;;;;;;21.02;13.00;;;;;;;;;;5092549;28;20031;-58
2023/08/24 02:58:41;;;;;;;21.75;13.25;;;;;;;;;;5074337;28;20028;-58
2023/08/24 03:01:07;;;;;;;23.15;12.85;;;;;;;;;;5092584;28;20452;-58
2023/08/24 03:03:34;;;;;;;21.73;13.27;;;;;;;;;;5092532;28;20190;-55
2023/08/24 03:06:01;;;;;;;23.60;12.90;;;;;;;;;;5092524;28;20028;-58
2023/08/24 03:08:27;;;;;;;22.73;14.30;;;;;;;;;;5092507;28;20055;-57
2023/08/24 03:10:53;;;;;;;21.08;13.07;;;;;;;;;;5092655;28;20032;-58
2023/08/24 03:13:19;;;;;;;24.73;13.43;;;;;;;;;;5092596;28;20103;-59
2023/08/24 03:15:45;;;;;;;21.83;14.00;;;;;;;;;;5085848;28;20135;-58
2023/08/24 03:18:12;;;;;;;23.45;14.25;;;;;;;;;;5067836;28;20043;-59
2023/08/24 03:20:39;;;;;;;21.73;13.70;;;;;;;;;;5091193;28;20023;-60
2023/08/24 03:23:05;;;;;;;21.27;14.52;;;;;;;;;;5074086;28;20028;-60
2023/08/24 03:25:32;;;;;;;23.45;14.68;;;;;;;;;;5091968;28;20434;-57
2023/08/24 03:27:58;;;;;;;23.15;15.88;;;;;;;;;;5091909;28;20020;-58
2023/08/24 03:30:24;;;;;;;24.60;15.20;;;;;;;;;;5091918;28;20028;-60
2023/08/24 03:32:50;;;;;;;24.20;16.30;;;;;;;;;;5091885;28;20123;-60
2023/08/24 03:35:16;;;;;;;21.90;14.52;;;;;;;;;;5073671;28;20024;-58
2023/08/24 03:37:42;;;;;;;24.35;15.73;;;;;;;;;;5091961;28;20416;-60
2023/08/24 03:40:08;;;;;;;24.15;16.13;;;;;;;;;;5073562;28;20381;-59
2023/08/24 03:42:34;;;;;;;23.83;16.40;;;;;;;;;;5073681;28;20024;-60
2023/08/24 03:45:00;;;;;;;24.95;16.40;;;;;;;;;;5091315;28;20027;-60
2023/08/24 03:47:26;;;;;;;28.52;17.45;;;;;;;;;;5091398;28;20455;-60
2023/08/24 03:49:52;;;;;;;28.38;17.02;;;;;;;;;;5091191;28;20028;-59
2023/08/24 03:52:18;;;;;;;22.10;14.95;;;;;;;;;;5072568;28;20031;-60
2023/08/24 03:54:44;;;;;;;22.77;15.52;;;;;;;;;;5091495;28;20027;-60
2023/08/24 03:57:10;;;;;;;28.00;15.95;;;;;;;;;;5091696;28;20028;-60
2023/08/24 03:59:36;;;;;;;26.02;16.60;;;;;;;;;;5091330;28;20552;-57
2023/08/24 04:02:03;;;;;;;28.27;16.23;;;;;;;;;;5091560;28;20104;-57
2023/08/24 04:04:30;;;;;;;24.42;15.68;;;;;;;;;;5093232;28;20039;-57
2023/08/24 04:06:56;;;;;;;27.92;17.30;;;;;;;;;;5103752;28;20043;-59
2023/08/24 04:09:22;;;;;;;26.05;17.05;;;;;;;;;;5094627;28;20027;-56
2023/08/24 04:11:48;;;;;;;25.60;16.55;;;;;;;;;;5091373;28;20028;-58
2023/08/24 04:14:14;;;;;;;26.42;17.52;;;;;;;;;;5091189;28;20051;-58
2023/08/24 04:16:41;;;;;;;29.80;18.73;;;;;;;;;;5091273;28;20163;-57
2023/08/24 04:19:08;;;;;;;27.67;18.25;;;;;;;;;;5091154;28;20020;-58
2023/08/24 04:21:34;;;;;;;27.65;17.35;;;;;;;;;;5091442;28;20035;-58
2023/08/24 04:24:00;;;;;;;26.40;16.85;;;;;;;;;;5091208;28;20304;-56
2023/08/24 04:26:26;;;;;;;26.77;17.98;;;;;;;;;;5073040;28;20118;-57
2023/08/24 04:28:52;;;;;;;26.95;18.02;;;;;;;;;;5090950;28;20027;-58
2023/08/24 04:31:18;;;;;;;30.15;17.75;;;;;;;;;;5091396;28;20646;-59
2023/08/24 04:33:44;;;;;;;28.35;18.35;;;;;;;;;;5091256;28;20032;-59
2023/08/24 04:36:10;;;;;;;30.13;18.38;;;;;;;;;;5090996;28;20050;-59
2023/08/24 04:38:35;;;;;;;32.33;18.55;;;;;;;;;;5091068;28;20479;-59
2023/08/24 04:41:01;;;;;;;29.65;18.20;;;;;;;;;;5090895;28;20085;-59
2023/08/24 04:43:27;;;;;;;30.75;19.35;;;;;;;;;;5090498;28;20111;-59
2023/08/24 04:45:54;;;;;;;27.25;18.33;;;;;;;;;;5090409;28;20046;-58
2023/08/24 04:48:24;;;;;;;27.38;19.63;;;;;;;;;;5090700;28;20028;-60
2023/08/24 04:50:50;;;;;;;31.05;19.60;;;;;;;;;;5091013;28;20442;-59
2023/08/24 04:53:17;;;;;;;25.17;17.98;;;;;;;;;;5090609;28;20024;-60
2023/08/24 04:55:44;;;;;;;26.88;19.42;;;;;;;;;;5090978;28;20028;-59
2023/08/24 04:58:10;;;;;;;33.15;21.67;;;;;;;;;;5090390;28;20035;-59
2023/08/24 05:00:37;;;;;;;29.08;19.83;;;;;;;;;;5090939;28;20392;-59
2023/08/24 05:03:04;;;;;;;27.55;19.05;;;;;;;;;;5091367;28;20503;-58
2023/08/24 05:05:31;;;;;;;23.70;17.70;;;;;;;;;;5095022;28;20137;-58
2023/08/24 05:07:57;;;;;;;25.60;17.55;;;;;;;;;;5095201;28;20471;-58
2023/08/24 05:10:23;;;;;;;26.50;17.55;;;;;;;;;;5094770;28;20456;-58
2023/08/24 05:12:49;;;;;;;34.90;20.13;;;;;;;;;;5095010;28;20028;-59
2023/08/24 05:15:15;;;;;;;25.98;17.02;;;;;;;;;;5094373;28;20058;-59
2023/08/24 05:17:41;;;;;;;31.38;20.92;;;;;;;;;;5094576;28;20481;-59
2023/08/24 05:20:10;;;;;;;26.52;18.10;;;;;;;;;;5094296;28;20024;-58
2023/08/24 05:22:39;;;;;;;29.65;19.65;;;;;;;;;;5094509;28;20377;-60
2023/08/24 05:25:05;;;;;;;30.92;20.55;;;;;;;;;;5100641;28;20028;-59
2023/08/24 05:27:32;;;;;;;27.17;19.80;;;;;;;;;;5087400;28;20028;-58
2023/08/24 05:29:58;;;;;;;26.02;19.30;;;;;;;;;;5077784;28;20043;-58
2023/08/24 05:32:24;;;;;;;26.17;20.00;;;;;;;;;;5094480;28;20016;-58
2023/08/24 05:34:50;;;;;;;28.10;20.60;;;;;;;;;;5094134;28;20096;-59
2023/08/24 05:37:16;;;;;;;29.85;20.48;;;;;;;;;;5075733;28;20031;-60
2023/08/24 05:39:42;;;;;;;27.15;21.27;;;;;;;;;;5094234;28;20040;-59
2023/08/24 05:42:09;;;;;;;27.65;21.17;;;;;;;;;;5094156;28;20028;-58
2023/08/24 05:44:35;;;;;;;30.63;21.42;;;;;;;;;;5093400;28;20039;-56
2023/08/24 05:47:01;;;;;;;25.60;19.45;;;;;;;;;;5090862;28;20066;-60
2023/08/24 05:49:27;;;;;;;29.63;20.65;;;;;;;;;;5075690;28;20455;-58
2023/08/24 05:51:53;;;;;;;27.77;21.25;;;;;;;;;;5075126;28;20032;-55
2023/08/24 05:54:19;;;;;;;28.50;20.67;;;;;;;;;;5087547;28;20545;-59
2023/08/24 05:56:46;;;;;;;35.28;23.70;;;;;;;;;;5073307;28;20052;-59
2023/08/24 05:59:12;;;;;;;27.23;22.13;;;;;;;;;;5075001;28;20043;-59
2023/08/24 06:01:39;;;;;;;26.88;20.10;;;;;;;;;;5073901;28;20020;-59
2023/08/24 06:04:08;;;;;;;27.33;21.08;;;;;;;;;;5089442;28;20016;-57
2023/08/24 06:06:34;;;;;;;29.02;21.38;;;;;;;;;;5094116;28;20035;-59
2023/08/24 06:09:00;;;;;;;28.00;21.50;;;;;;;;;;5093730;28;20023;-59
2023/08/24 06:11:26;;;;;;;27.60;20.63;;;;;;;;;;5093710;28;20020;-58
2023/08/24 06:13:54;;;;;;;26.27;20.13;;;;;;;;;;5092831;28;20051;-57
2023/08/24 06:16:20;;;;;;;25.75;20.10;;;;;;;;;;5093505;28;20020;-59
2023/08/24 06:18:46;;;;;;;27.27;20.77;;;;;;;;;;5092911;28;20032;-59
2023/08/24 06:21:12;;;;;;;30.75;21.02;;;;;;;;;;5076730;28;20577;-60
2023/08/24 06:23:41;;;;;;;31.52;21.08;;;;;;;;;;5072788;28;20025;-57
2023/08/24 06:26:07;;;;;;;28.10;20.27;;;;;;;;;;5072472;28;20469;-58
2023/08/24 06:28:33;;;;;;;30.45;21.52;;;;;;;;;;5072703;28;20036;-59
2023/08/24 06:31:00;;;;;;;27.08;21.10;;;;;;;;;;5072983;28;20035;-59
2023/08/24 06:33:30;;;;;;;30.00;21.90;;;;;;;;;;5072925;28;20107;-57
2023/08/24 06:35:59;;;;;;;28.60;22.90;;;;;;;;;;5072754;28;20074;-63
2023/08/24 06:38:25;;;;;;;29.48;22.20;;;;;;;;;;5091920;22;20413;-65
2023/08/24 06:40:51;;;;;;;31.52;22.45;;;;;;;;;;5071969;28;20032;-66
2023/08/24 06:43:18;;;;;;;30.67;23.48;;;;;;;;;;5053922;28;20452;-65
2023/08/24 06:45:47;;;;;;;26.95;22.67;;;;;;;;;;5071328;28;20024;-64
2023/08/24 06:48:13;;;;;;;28.33;22.73;;;;;;;;;;5032990;28;20400;-67
2023/08/24 06:50:39;;;;;;;30.38;22.27;;;;;;;;;;5051358;28;20020;-68
2023/08/24 06:53:05;;;;;;;30.40;22.50;;;;;;;;;;5033760;28;20442;-67
2023/08/24 06:55:31;;;;;;;27.27;22.60;;;;;;;;;;5033372;28;20107;-66
2023/08/24 06:57:57;;;;;;;28.17;22.17;;;;;;;;;;5051479;28;20021;-63
2023/08/24 07:00:25;;;;;;;31.70;23.55;;;;;;;;;;5051844;28;20062;-66
2023/08/24 07:02:51;;;;;;;29.33;23.97;;;;;;;;;;5051587;28;20659;-65
2023/08/24 07:05:20;;;;;;;32.00;22.77;;;;;;;;;;5060679;28;20381;-68
2023/08/24 07:07:47;;;;;;;28.92;21.65;;;;;;;;;;5068437;28;20037;-65
2023/08/24 07:10:13;;;;;;;25.95;20.25;;;;;;;;;;5048451;28;20055;-66
2023/08/24 07:12:44;;;;;;;27.50;21.60;;;;;;;;;;5071521;28;20027;-64
2023/08/24 07:15:10;;;;;;;35.85;24.73;;;;;;;;;;5071595;28;20062;-66
2023/08/24 07:17:36;;;;;;;28.35;21.08;;;;;;;;;;5071628;28;20036;-66
2023/08/24 07:20:05;;;;;;;31.83;22.77;;;;;;;;;;5070376;28;20021;-66
2023/08/24 07:22:31;;;;;;;32.70;22.90;;;;;;;;;;5051240;28;20432;-62
2023/08/24 07:24:57;;;;;;;27.90;20.52;;;;;;;;;;5032466;28;20034;-67
2023/08/24 07:27:23;;;;;;;28.95;20.38;;;;;;;;;;5049659;28;20091;-66
2023/08/24 07:29:49;;;;;;;26.52;20.05;;;;;;;;;;5066888;28;20033;-66
2023/08/24 07:32:15;;;;;;;25.30;20.88;;;;;;;;;;5063939;28;20021;-66
2023/08/24 07:34:41;;;;;;;27.52;21.02;;;;;;;;;;5069267;28;20021;-65
2023/08/24 07:37:07;;;;;;;28.73;20.95;;;;;;;;;;5052716;28;20086;-66
2023/08/24 07:39:33;;;;;;;24.48;20.13;;;;;;;;;;5070557;28;20021;-66
2023/08/24 07:41:59;;;;;;;28.33;21.52;;;;;;;;;;5070923;28;20032;-55
2023/08/24 07:44:26;;;;;;;25.92;20.63;;;;;;;;;;5070425;28;20126;-54
2023/08/24 07:46:52;;;;;;;26.58;21.35;;;;;;;;;;5070491;28;20173;-54
2023/08/24 07:49:18;;;;;;;31.80;23.33;;;;;;;;;;5070338;28;20056;-55
2023/08/24 07:51:44;;;;;;;33.33;22.15;;;;;;;;;;5069969;28;20182;-51
2023/08/24 07:54:10;;;;;;;28.23;22.40;;;;;;;;;;5070285;28;20147;-56
2023/08/24 07:56:36;;;;;;;29.60;19.17;;;;;;;;;;5070200;28;20025;-58
2023/08/24 07:59:03;;;;;;;26.60;20.10;;;;;;;;;;5070059;28;20507;-57
2023/08/24 08:01:29;;;;;;;24.13;19.65;;;;;;;;;;5070208;28;20419;-58
2023/08/24 08:03:55;;;;;;;26.65;19.63;;;;;;;;;;5070001;28;20028;-57
2023/08/24 08:06:21;;;;;;;25.83;20.15;;;;;;;;;;5070053;28;20052;-57
2023/08/24 08:08:50;;;;;;;24.85;19.15;;;;;;;;;;5069834;28;20024;-56
2023/08/24 08:11:16;;;;;;;;;;;;;;;;;;5070510;28;20131;-57
2023/08/24 08:13:42;;;;;;;23.52;18.75;;;;;;;;;;5069907;28;20436;-55
2023/08/24 08:16:09;;;;;;;26.65;18.75;;;;;;;;;;5070205;28;20044;-56
2023/08/24 08:18:36;;;;;;;22.48;17.85;;;;;;;;;;5069972;28;20031;-57
2023/08/24 08:21:03;;;;;;;24.98;18.30;;;;;;;;;;5069963;28;20021;-54
2023/08/24 08:23:29;;;;;;;25.27;17.08;;;;;;;;;;5069988;28;20028;-57
2023/08/24 08:25:55;;;;;;;23.60;18.15;;;;;;;;;;5065466;28;20092;-54
2023/08/24 08:28:21;;;;;;;25.80;18.65;;;;;;;;;;5059085;28;20020;-55
2023/08/24 08:30:49;;;;;;;23.33;16.85;;;;;;;;;;5060100;28;20051;-55
2023/08/24 08:33:15;;;;;;;23.65;18.58;;;;;;;;;;5040758;28;20025;-59
2023/08/24 08:35:41;;;;;;;24.52;18.00;;;;;;;;;;5060688;28;20038;-57
2023/08/24 08:38:07;;;;;;;23.50;18.08;;;;;;;;;;5059434;28;20031;-58
2023/08/24 08:40:36;;;;;;;23.80;16.30;;;;;;;;;;5057525;28;20017;-52
2023/08/24 08:43:02;;;;;;;22.38;16.35;;;;;;;;;;5069903;28;20040;-52
2023/08/24 08:45:28;;;;;;;28.92;17.65;;;;;;;;;;5069524;28;20057;-50
2023/08/24 08:48:01;;;;;;;22.08;16.88;;;;;;;;;;5069623;28;20020;-51
2023/08/24 08:50:28;;;;;;;21.33;16.50;;;;;;;;;;5061935;28;20068;-55
2023/08/24 08:52:54;;;;;;;22.77;16.95;;;;;;;;;;5059419;28;20025;-55
2023/08/24 08:55:20;;;;;;;22.30;17.48;;;;;;;;;;5050024;28;20043;-56
2023/08/24 08:57:48;;;;;;;25.70;17.35;;;;;;;;;;5055264;28;20104;-57
2023/08/24 09:00:15;;;;;;;25.27;15.18;;;;;;;;;;5053879;28;20064;-55
2023/08/24 09:02:44;;;;;;;24.73;18.30;;;;;;;;;;5051102;28;20103;-55
2023/08/24 09:05:10;;;;;;;;;;;;;;;;;;5063774;28;20039;-57
2023/08/24 09:07:36;;;;;;;23.52;17.08;;;;;;;;;;5045670;28;19915;-53
2023/08/24 09:10:04;;;;;;;23.02;17.33;;;;;;;;;;5065679;28;20021;-54
2023/08/24 09:12:34;;;;;;;20.33;15.80;;;;;;;;;;5043046;28;20113;-58
2023/08/24 09:15:00;;;;;;;20.85;16.15;;;;;;;;;;5051159;28;20035;-57
2023/08/24 09:17:26;;;;;;;20.73;15.25;;;;;;;;;;5060091;28;20099;-57
2023/08/24 09:19:59;;;;;;;22.48;16.00;;;;;;;;;;5059994;28;20028;-54
2023/08/24 09:22:25;;;;;;;19.52;15.07;;;;;;;;;;5059456;28;20031;-57
2023/08/24 09:24:51;;;;;;;19.75;15.05;;;;;;;;;;5060920;28;20055;-57
2023/08/24 09:27:18;;;;;;;20.77;16.02;;;;;;;;;;5061084;28;20039;-57
2023/08/24 09:29:50;;;;;;;21.50;14.65;;;;;;;;;;5055873;28;20033;-54
2023/08/24 09:32:22;;;;;;;20.58;14.50;;;;;;;;;;5045884;28;20032;-55
2023/08/24 09:34:48;;;;;;;21.85;15.70;;;;;;;;;;5055641;28;20039;-54
2023/08/24 09:37:15;;;;;;;20.70;15.43;;;;;;;;;;5049119;28;20029;-57
2023/08/24 09:39:41;;;;;;;20.88;15.77;;;;;;;;;;5050169;28;20527;-57
2023/08/24 09:42:07;;;;;;;22.88;16.15;;;;;;;;;;5047434;28;20028;-57
2023/08/24 09:44:33;;;;;;;19.63;14.75;;;;;;;;;;5060330;28;20554;-53
2023/08/24 09:46:59;;;;;;;22.40;16.58;;;;;;;;;;5057894;28;20051;-59
2023/08/24 09:49:26;;;;;;;24.40;17.42;;;;;;;;;;5055441;28;20479;-55
2023/08/24 09:51:59;;;;;;;21.63;17.33;;;;;;;;;;5063089;28;20042;-56
2023/08/24 09:54:28;;;;;;;22.45;16.67;;;;;;;;;;5062416;28;20016;-57
2023/08/24 09:56:56;;;;;;;22.20;16.42;;;;;;;;;;5060955;28;20025;-57
2023/08/24 09:59:24;;;;;;;20.75;16.25;;;;;;;;;;5062360;28;20024;-53
2023/08/24 10:01:50;;;;;;;;;;;;;;;;;;5063458;28;20029;-54
2023/08/24 10:04:24;;;;;;;23.05;18.08;;;;;;;;;;5060561;28;19962;-55
2023/08/24 10:06:53;;;;;;;20.20;16.48;;;;;;;;;;5068544;28;20031;-62
2023/08/24 10:09:23;;;;;;;22.38;16.95;;;;;;;;;;5073003;28;20568;-62
2023/08/24 10:11:50;;;;;;;22.25;17.08;;;;;;;;;;5072769;28;20558;-60
2023/08/24 10:14:19;;;;;;;22.45;17.40;;;;;;;;;;5072379;28;20036;-61
2023/08/24 10:16:46;;;;;;;23.50;17.58;;;;;;;;;;5072514;28;20040;-61
2023/08/24 10:19:13;;;;;;;22.50;17.02;;;;;;;;;;5072443;28;20028;-62
2023/08/24 10:21:40;;;;;;;21.30;16.52;;;;;;;;;;5067654;28;20032;-63
2023/08/24 10:24:06;;;;;;;21.38;15.93;;;;;;;;;;5072048;28;20108;-62
2023/08/24 10:26:33;;;;;;;20.15;16.30;;;;;;;;;;5053597;28;20543;-61
2023/08/24 10:29:00;;;;;;;19.65;15.23;;;;;;;;;;5052112;28;20327;-62
2023/08/24 10:31:27;;;;;;;20.40;15.05;;;;;;;;;;5052626;28;20029;-62
2023/08/24 10:33:53;;;;;;;19.83;15.27;;;;;;;;;;5036488;28;20033;-58
2023/08/24 10:36:19;;;;;;;19.05;15.80;;;;;;;;;;5071845;28;20082;-62
2023/08/24 10:38:45;;;;;;;21.38;15.55;;;;;;;;;;5071844;28;20032;-58
2023/08/24 10:41:13;;;;;;;22.38;15.35;;;;;;;;;;5070056;28;20017;-61
2023/08/24 10:43:40;;;;;;;20.45;15.35;;;;;;;;;;5069744;28;20036;-61
2023/08/24 10:46:12;;;;;;;19.08;14.60;;;;;;;;;;5069556;28;20029;-62
2023/08/24 10:48:41;;;;;;;19.30;14.43;;;;;;;;;;5051314;28;20032;-63
2023/08/24 10:51:18;;;;;;;20.73;15.73;;;;;;;;;;5051741;28;20532;-63
2023/08/24 10:53:45;;;;;;;19.60;15.20;;;;;;;;;;5070346;28;20083;-63
2023/08/24 10:56:14;;;;;;;18.33;14.20;;;;;;;;;;5070324;28;20043;-63
2023/08/24 10:58:40;;;;;;;20.00;14.48;;;;;;;;;;5071110;28;20473;-63
2023/08/24 11:01:06;;;;;;;20.70;16.30;;;;;;;;;;5052473;28;20411;-63
2023/08/24 11:03:33;;;;;;;19.38;16.50;;;;;;;;;;5071220;28;20028;-60
2023/08/24 11:05:59;;;;;;;21.80;15.93;;;;;;;;;;5071331;28;20443;-63
2023/08/24 11:08:44;;;;;;;21.65;17.08;;;;;;;;;;5071463;28;20487;-59
2023/08/24 11:11:24;;;;;;;20.42;15.40;;;;;;;;;;5071620;28;20035;-57
2023/08/24 11:14:09;;;;;;;18.70;14.77;;;;;;;;;;5072179;28;20099;-63
2023/08/24 11:16:45;;;;;;;23.52;16.33;;;;;;;;;;5071320;28;20454;-62
2023/08/24 11:19:14;;;;;;;19.98;15.70;;;;;;;;;;5071531;28;20023;-61
2023/08/24 11:21:41;;;;;;;18.52;15.88;;;;;;;;;;5071126;28;20025;-63
2023/08/24 11:24:07;;;;;;;19.00;16.05;;;;;;;;;;5070827;28;20114;-60
2023/08/24 11:26:34;;;;;;;21.13;15.13;;;;;;;;;;5070899;28;20032;-61
2023/08/24 11:29:00;;;;;;;19.73;15.18;;;;;;;;;;5070903;28;20099;-61
2023/08/24 11:31:27;;;;;;;19.20;15.10;;;;;;;;;;5070658;28;20024;-61
2023/08/24 11:33:56;;;;;;;20.52;15.38;;;;;;;;;;5070794;28;20028;-58
2023/08/24 11:36:25;;;;;;;22.48;16.38;;;;;;;;;;5070726;28;20050;-63
2023/08/24 11:38:57;;;;;;;21.55;15.80;;;;;;;;;;5070797;28;20084;-61
2023/08/24 11:41:23;;;;;;;21.80;15.88;;;;;;;;;;5071247;28;20416;-64
2023/08/24 11:43:53;;;;;;;18.40;15.50;;;;;;;;;;5052951;28;20063;-61
2023/08/24 11:46:19;;;;;;;20.10;15.90;;;;;;;;;;5070956;28;20021;-62
2023/08/24 11:48:45;;;;;;;21.08;15.68;;;;;;;;;;5060683;28;20511;-62
2023/08/24 11:51:12;;;;;;;18.83;15.70;;;;;;;;;;5070109;28;20079;-60
2023/08/24 11:53:39;;;;;;;21.80;15.57;;;;;;;;;;5061908;28;20035;-61
2023/08/24 11:56:05;;;;;;;20.80;16.35;;;;;;;;;;4717241;28;10000568;-59
2023/08/24 11:58:31;;;;;;;20.05;15.85;;;;;;;;;;5039432;28;20036;-58
2023/08/24 12:00:58;;;;;;;19.02;16.20;;;;;;;;;;5061956;28;20028;-62
2023/08/24 12:03:24;;;;;;;18.58;15.57;;;;;;;;;;5057357;28;20067;-60
2023/08/24 12:05:50;;;;;;;19.70;15.85;;;;;;;;;;5050091;28;20024;-62
2023/08/24 12:08:16;;;;;;;18.65;15.95;;;;;;;;;;5048723;28;20043;-61
2023/08/24 12:10:45;;;;;;;20.48;16.70;;;;;;;;;;5056928;28;20039;-60
2023/08/24 12:13:12;;;;;;;19.35;16.10;;;;;;;;;;5051636;28;20951;-58
2023/08/24 12:15:38;;;;;;;20.67;16.13;;;;;;;;;;5057342;28;20028;-61
2023/08/24 12:18:11;;;;;;;18.73;15.75;;;;;;;;;;5055216;28;20032;-60
2023/08/24 12:20:37;;;;;;;20.48;15.52;;;;;;;;;;5053578;28;20055;-59
2023/08/24 12:23:03;;;;;;;18.80;15.23;;;;;;;;;;5056571;28;20036;-58
2023/08/24 12:25:29;;;;;;;18.40;15.70;;;;;;;;;;5057204;28;20024;-61
2023/08/24 12:28:15;;;;;;;19.70;15.70;;;;;;;;;;5066020;28;20485;-61
2023/08/24 12:30:45;;;;;;;20.92;16.23;;;;;;;;;;5068177;28;20012;-58
2023/08/24 12:33:21;;;;;;;20.67;15.60;;;;;;;;;;5050863;28;20096;-62
2023/08/24 12:35:48;;;;;;;23.00;15.75;;;;;;;;;;5069644;28;20035;-62
2023/08/24 12:38:14;;;;;;;19.88;16.50;;;;;;;;;;5054308;28;20039;-62
2023/08/24 12:40:40;;;;;;;21.35;16.25;;;;;;;;;;5067167;22;20041;-60
2023/08/24 12:43:06;;;;;;;20.98;16.40;;;;;;;;;;5065022;28;20060;-57
2023/08/24 12:45:32;;;;;;;20.75;16.42;;;;;;;;;;5051381;28;20464;-56
2023/08/24 12:47:58;;;;;;;19.67;15.75;;;;;;;;;;5057220;28;20028;-61
2023/08/24 12:50:24;;;;;;;21.40;15.40;;;;;;;;;;5066433;28;20482;-58
2023/08/24 12:52:55;;;;;;;18.00;15.15;;;;;;;;;;5050667;28;20100;-57
2023/08/24 12:55:21;;;;;;;18.30;14.50;;;;;;;;;;5049991;28;20039;-56
2023/08/24 12:57:47;;;;;;;18.13;15.07;;;;;;;;;;5032425;28;20059;-51
2023/08/24 13:00:13;;;;;;;17.17;14.48;;;;;;;;;;5050098;28;20017;-56
2023/08/24 13:02:39;;;;;;;18.88;15.02;;;;;;;;;;5049931;28;20025;-58
2023/08/24 13:05:05;;;;;;;18.42;15.25;;;;;;;;;;5046564;28;20113;-56
2023/08/24 13:07:31;;;;;;;20.02;14.63;;;;;;;;;;5044930;28;20362;-60
2023/08/24 13:09:57;;;;;;;18.15;15.32;;;;;;;;;;5045372;28;20112;-59
2023/08/24 13:12:24;;;;;;;21.05;15.18;;;;;;;;;;5046154;28;20136;-59
2023/08/24 13:14:50;;;;;;;18.02;15.75;;;;;;;;;;5046050;28;20088;-59
2023/08/24 13:17:16;;;;;;;19.25;15.52;;;;;;;;;;5048921;28;20017;-59
2023/08/24 13:19:42;;;;;;;18.95;15.70;;;;;;;;;;5023591;28;20022;-59
2023/08/24 13:22:08;;;;;;;20.17;16.27;;;;;;;;;;5049744;28;20040;-57
2023/08/24 13:24:34;;;;;;;21.30;15.55;;;;;;;;;;5038524;28;20521;-59
2023/08/24 13:27:00;;;;;;;18.48;15.70;;;;;;;;;;5033748;28;20029;-59
2023/08/24 13:29:26;;;;;;;18.80;15.55;;;;;;;;;;5033481;28;20120;-61
2023/08/24 13:31:52;;;;;;;17.73;14.98;;;;;;;;;;5030670;28;20444;-60
2023/08/24 13:34:19;;;;;;;18.30;15.10;;;;;;;;;;5045974;28;20032;-59
2023/08/24 13:36:44;;;;;;;19.70;15.48;;;;;;;;;;5019506;28;20041;-57
2023/08/24 13:39:11;;;;;;;19.13;16.02;;;;;;;;;;5042551;28;20178;-60
2023/08/24 13:41:37;;;;;;;20.23;15.50;;;;;;;;;;5033727;28;20038;-59
2023/08/24 13:44:04;;;;;;;19.95;15.57;;;;;;;;;;5015437;28;20547;-59
2023/08/24 13:46:30;;;;;;;19.30;15.55;;;;;;;;;;5015510;28;20111;-60
2023/08/24 13:48:55;;;;;;;19.83;15.20;;;;;;;;;;5048685;28;20025;-60
2023/08/24 13:51:21;;;;;;;18.33;15.52;;;;;;;;;;5053379;28;20017;-59
2023/08/24 13:53:48;;;;;;;18.92;15.75;;;;;;;;;;5053108;28;20026;-58
2023/08/24 13:56:14;;;;;;;17.88;15.30;;;;;;;;;;5053143;28;20021;-60
2023/08/24 13:58:40;;;;;;;19.88;15.93;;;;;;;;;;5053763;28;20469;-58
2023/08/24 14:01:18;;;;;;;20.05;14.73;;;;;;;;;;4764049;28;10000878;-54
2023/08/24 14:03:44;;;;;;;18.83;15.88;;;;;;;;;;5025614;28;21023;-57
2023/08/24 14:06:13;;;;;;;21.83;15.70;;;;;;;;;;5040264;28;20057;-58
2023/08/24 14:08:39;;;;;;;19.35;15.07;;;;;;;;;;5019849;28;20017;-59
2023/08/24 14:11:05;;;;;;;18.00;15.07;;;;;;;;;;5039740;28;20063;-59
2023/08/24 14:13:31;;;;;;;20.67;15.68;;;;;;;;;;5040910;28;20025;-58
2023/08/24 14:15:57;;;;;;;18.77;15.30;;;;;;;;;;5038347;28;20017;-59
2023/08/24 14:18:23;;;;;;;19.48;16.13;;;;;;;;;;5039823;28;20024;-59